sensor_id;sensor_type;location;lat;lon;timestamp;P1;durP1;ratioP1;P2;durP2;ratioP2
11191;SDS011;5652;48.406;10.820;2022-10-20T00:01:08;22.25;;;9.38;;
11191;SDS011;5652;48.406;10.820;2022-10-20T00:03:35;24.47;;;9.17;;
11191;SDS011;5652;48.406;10.820;2022-10-20T00:06:06;21.20;;;9.25;;
11191;SDS011;5652;48.406;10.820;2022-10-20T00:08:33;19.02;;;8.40;;
11191;SDS011;5652;48.406;10.820;2022-10-20T00:11:00;19.35;;;8.30;;
11191;SDS011;5652;48.406;10.820;2022-10-20T00:13:28;22.20;;;8.98;;
11191;SDS011;5652;48.406;10.820;2022-10-20T00:15:55;24.93;;;9.33;;
11191;SDS011;5652;48.406;10.820;2022-10-20T00:18:24;25.60;;;9.65;;
11191;SDS011;5652;48.406;10.820;2022-10-20T00:20:51;21.70;;;9.98;;
11191;SDS011;5652;48.406;10.820;2022-10-20T00:23:18;19.63;;;9.30;;
11191;SDS011;5652;48.406;10.820;2022-10-20T00:25:46;18.67;;;8.50;;
11191;SDS011;5652;48.406;10.820;2022-10-20T00:28:13;15.52;;;8.02;;
11191;SDS011;5652;48.406;10.820;2022-10-20T00:30:40;18.87;;;8.33;;
11191;SDS011;5652;48.406;10.820;2022-10-20T00:33:07;17.25;;;8.25;;
11191;SDS011;5652;48.406;10.820;2022-10-20T00:35:37;16.85;;;8.18;;
11191;SDS011;5652;48.406;10.820;2022-10-20T00:38:04;18.17;;;7.40;;
11191;SDS011;5652;48.406;10.820;2022-10-20T00:40:31;15.90;;;7.68;;
11191;SDS011;5652;48.406;10.820;2022-10-20T00:42:58;16.35;;;7.85;;
11191;SDS011;5652;48.406;10.820;2022-10-20T00:45:25;15.80;;;8.23;;
11191;SDS011;5652;48.406;10.820;2022-10-20T00:47:53;16.75;;;7.80;;
11191;SDS011;5652;48.406;10.820;2022-10-20T00:50:22;16.08;;;7.70;;
11191;SDS011;5652;48.406;10.820;2022-10-20T00:52:51;15.32;;;7.47;;
11191;SDS011;5652;48.406;10.820;2022-10-20T00:55:20;17.58;;;8.57;;
11191;SDS011;5652;48.406;10.820;2022-10-20T00:57:49;22.25;;;9.50;;
11191;SDS011;5652;48.406;10.820;2022-10-20T01:00:16;18.83;;;8.83;;
11191;SDS011;5652;48.406;10.820;2022-10-20T01:02:44;22.38;;;9.57;;
11191;SDS011;5652;48.406;10.820;2022-10-20T01:05:12;23.10;;;10.00;;
11191;SDS011;5652;48.406;10.820;2022-10-20T01:07:39;30.58;;;12.13;;
11191;SDS011;5652;48.406;10.820;2022-10-20T01:10:08;29.67;;;11.98;;
11191;SDS011;5652;48.406;10.820;2022-10-20T01:12:36;34.03;;;13.00;;
11191;SDS011;5652;48.406;10.820;2022-10-20T01:15:07;34.55;;;12.68;;
11191;SDS011;5652;48.406;10.820;2022-10-20T01:17:39;28.92;;;11.80;;
11191;SDS011;5652;48.406;10.820;2022-10-20T01:25:39;30.98;;;13.32;;
11191;SDS011;5652;48.406;10.820;2022-10-20T01:28:14;36.08;;;14.27;;
11191;SDS011;5652;48.406;10.820;2022-10-20T01:30:43;43.97;;;14.55;;
11191;SDS011;5652;48.406;10.820;2022-10-20T01:33:15;42.55;;;14.73;;
11191;SDS011;5652;48.406;10.820;2022-10-20T01:35:48;37.90;;;13.80;;
11191;SDS011;5652;48.406;10.820;2022-10-20T01:38:20;41.25;;;15.68;;
11191;SDS011;5652;48.406;10.820;2022-10-20T01:40:50;42.72;;;14.75;;
11191;SDS011;5652;48.406;10.820;2022-10-20T01:43:20;42.63;;;16.08;;
11191;SDS011;5652;48.406;10.820;2022-10-20T01:45:49;49.33;;;15.35;;
11191;SDS011;5652;48.406;10.820;2022-10-20T01:48:19;44.33;;;15.50;;
11191;SDS011;5652;48.406;10.820;2022-10-20T01:50:47;45.08;;;16.20;;
11191;SDS011;5652;48.406;10.820;2022-10-20T01:53:14;48.70;;;16.85;;
11191;SDS011;5652;48.406;10.820;2022-10-20T01:55:42;45.00;;;16.05;;
11191;SDS011;5652;48.406;10.820;2022-10-20T01:58:14;47.15;;;16.30;;
11191;SDS011;5652;48.406;10.820;2022-10-20T02:00:43;46.90;;;17.35;;
11191;SDS011;5652;48.406;10.820;2022-10-20T02:03:17;53.53;;;18.05;;
11191;SDS011;5652;48.406;10.820;2022-10-20T02:05:51;52.35;;;18.40;;
11191;SDS011;5652;48.406;10.820;2022-10-20T02:08:25;49.35;;;18.90;;
11191;SDS011;5652;48.406;10.820;2022-10-20T02:10:54;47.55;;;17.80;;
11191;SDS011;5652;48.406;10.820;2022-10-20T02:13:23;50.78;;;17.95;;
11191;SDS011;5652;48.406;10.820;2022-10-20T02:15:54;51.25;;;18.42;;
11191;SDS011;5652;48.406;10.820;2022-10-20T02:18:23;49.13;;;18.13;;
11191;SDS011;5652;48.406;10.820;2022-10-20T02:20:53;52.45;;;18.00;;
11191;SDS011;5652;48.406;10.820;2022-10-20T02:23:21;51.38;;;18.90;;
11191;SDS011;5652;48.406;10.820;2022-10-20T02:25:48;45.63;;;17.55;;
11191;SDS011;5652;48.406;10.820;2022-10-20T02:28:17;59.35;;;21.45;;
11191;SDS011;5652;48.406;10.820;2022-10-20T02:30:45;51.07;;;19.37;;
11191;SDS011;5652;48.406;10.820;2022-10-20T02:33:14;45.97;;;18.92;;
11191;SDS011;5652;48.406;10.820;2022-10-20T02:35:44;50.03;;;18.40;;
11191;SDS011;5652;48.406;10.820;2022-10-20T02:38:14;55.75;;;20.70;;
11191;SDS011;5652;48.406;10.820;2022-10-20T02:40:41;55.22;;;20.83;;
11191;SDS011;5652;48.406;10.820;2022-10-20T02:43:09;49.78;;;18.80;;
11191;SDS011;5652;48.406;10.820;2022-10-20T02:45:36;51.03;;;19.13;;
11191;SDS011;5652;48.406;10.820;2022-10-20T02:48:03;52.30;;;19.92;;
11191;SDS011;5652;48.406;10.820;2022-10-20T02:50:32;42.90;;;18.08;;
11191;SDS011;5652;48.406;10.820;2022-10-20T02:52:59;53.00;;;19.17;;
11191;SDS011;5652;48.406;10.820;2022-10-20T02:55:26;49.95;;;19.33;;
11191;SDS011;5652;48.406;10.820;2022-10-20T02:57:54;50.80;;;19.27;;
11191;SDS011;5652;48.406;10.820;2022-10-20T03:00:22;54.43;;;19.97;;
11191;SDS011;5652;48.406;10.820;2022-10-20T03:02:53;50.00;;;19.33;;
11191;SDS011;5652;48.406;10.820;2022-10-20T03:05:21;48.77;;;18.93;;
11191;SDS011;5652;48.406;10.820;2022-10-20T03:07:49;46.53;;;18.75;;
11191;SDS011;5652;48.406;10.820;2022-10-20T03:10:16;44.77;;;17.43;;
11191;SDS011;5652;48.406;10.820;2022-10-20T03:12:43;48.35;;;19.10;;
11191;SDS011;5652;48.406;10.820;2022-10-20T03:15:11;50.20;;;19.38;;
11191;SDS011;5652;48.406;10.820;2022-10-20T03:17:38;42.53;;;19.27;;
11191;SDS011;5652;48.406;10.820;2022-10-20T03:20:05;42.80;;;17.98;;
11191;SDS011;5652;48.406;10.820;2022-10-20T03:22:32;47.38;;;19.13;;
11191;SDS011;5652;48.406;10.820;2022-10-20T03:25:01;57.63;;;18.40;;
11191;SDS011;5652;48.406;10.820;2022-10-20T03:27:28;52.97;;;19.67;;
11191;SDS011;5652;48.406;10.820;2022-10-20T03:29:55;52.10;;;19.33;;
11191;SDS011;5652;48.406;10.820;2022-10-20T03:32:22;50.65;;;19.67;;
11191;SDS011;5652;48.406;10.820;2022-10-20T03:34:49;59.60;;;20.45;;
11191;SDS011;5652;48.406;10.820;2022-10-20T03:37:16;49.85;;;19.42;;
11191;SDS011;5652;48.406;10.820;2022-10-20T03:39:44;50.30;;;20.17;;
11191;SDS011;5652;48.406;10.820;2022-10-20T03:42:12;50.33;;;19.08;;
11191;SDS011;5652;48.406;10.820;2022-10-20T03:44:39;50.40;;;19.15;;
11191;SDS011;5652;48.406;10.820;2022-10-20T03:47:09;49.17;;;19.48;;
11191;SDS011;5652;48.406;10.820;2022-10-20T03:49:36;49.92;;;20.23;;
11191;SDS011;5652;48.406;10.820;2022-10-20T03:52:03;53.23;;;20.40;;
11191;SDS011;5652;48.406;10.820;2022-10-20T03:54:31;55.00;;;19.88;;
11191;SDS011;5652;48.406;10.820;2022-10-20T03:56:58;52.17;;;19.30;;
11191;SDS011;5652;48.406;10.820;2022-10-20T03:59:26;50.63;;;19.52;;
11191;SDS011;5652;48.406;10.820;2022-10-20T04:01:53;52.72;;;20.10;;
11191;SDS011;5652;48.406;10.820;2022-10-20T04:04:20;51.08;;;19.75;;
11191;SDS011;5652;48.406;10.820;2022-10-20T04:06:48;46.75;;;18.80;;
11191;SDS011;5652;48.406;10.820;2022-10-20T04:09:15;47.95;;;20.00;;
11191;SDS011;5652;48.406;10.820;2022-10-20T04:11:42;51.90;;;19.05;;
11191;SDS011;5652;48.406;10.820;2022-10-20T04:14:09;50.60;;;19.88;;
11191;SDS011;5652;48.406;10.820;2022-10-20T04:16:38;49.30;;;20.38;;
11191;SDS011;5652;48.406;10.820;2022-10-20T04:19:06;55.43;;;18.97;;
11191;SDS011;5652;48.406;10.820;2022-10-20T04:21:33;54.08;;;19.75;;
11191;SDS011;5652;48.406;10.820;2022-10-20T04:24:00;48.63;;;19.27;;
11191;SDS011;5652;48.406;10.820;2022-10-20T04:26:29;47.08;;;18.15;;
11191;SDS011;5652;48.406;10.820;2022-10-20T04:28:56;43.65;;;18.67;;
11191;SDS011;5652;48.406;10.820;2022-10-20T04:31:23;48.55;;;18.63;;
11191;SDS011;5652;48.406;10.820;2022-10-20T04:33:51;44.30;;;18.50;;
11191;SDS011;5652;48.406;10.820;2022-10-20T04:36:19;48.10;;;19.70;;
11191;SDS011;5652;48.406;10.820;2022-10-20T04:38:46;44.67;;;18.63;;
11191;SDS011;5652;48.406;10.820;2022-10-20T04:41:13;47.92;;;18.83;;
11191;SDS011;5652;48.406;10.820;2022-10-20T04:43:40;40.53;;;18.63;;
11191;SDS011;5652;48.406;10.820;2022-10-20T04:46:09;42.05;;;18.10;;
11191;SDS011;5652;48.406;10.820;2022-10-20T04:48:36;44.88;;;17.98;;
11191;SDS011;5652;48.406;10.820;2022-10-20T04:51:06;42.88;;;17.63;;
11191;SDS011;5652;48.406;10.820;2022-10-20T04:53:33;47.95;;;17.55;;
11191;SDS011;5652;48.406;10.820;2022-10-20T04:56:00;46.38;;;18.20;;
11191;SDS011;5652;48.406;10.820;2022-10-20T04:58:28;40.85;;;17.60;;
11191;SDS011;5652;48.406;10.820;2022-10-20T05:00:58;41.28;;;17.92;;
11191;SDS011;5652;48.406;10.820;2022-10-20T05:03:26;39.92;;;16.90;;
11191;SDS011;5652;48.406;10.820;2022-10-20T05:05:53;45.33;;;18.15;;
11191;SDS011;5652;48.406;10.820;2022-10-20T05:08:21;42.58;;;17.45;;
11191;SDS011;5652;48.406;10.820;2022-10-20T05:10:48;40.43;;;17.50;;
11191;SDS011;5652;48.406;10.820;2022-10-20T05:13:16;38.28;;;17.13;;
11191;SDS011;5652;48.406;10.820;2022-10-20T05:15:43;42.08;;;17.77;;
11191;SDS011;5652;48.406;10.820;2022-10-20T05:18:10;42.33;;;17.67;;
11191;SDS011;5652;48.406;10.820;2022-10-20T05:20:37;43.15;;;17.58;;
11191;SDS011;5652;48.406;10.820;2022-10-20T05:23:04;42.95;;;16.55;;
11191;SDS011;5652;48.406;10.820;2022-10-20T05:25:33;41.53;;;18.05;;
11191;SDS011;5652;48.406;10.820;2022-10-20T05:28:01;39.42;;;16.23;;
11191;SDS011;5652;48.406;10.820;2022-10-20T05:30:29;37.45;;;16.35;;
11191;SDS011;5652;48.406;10.820;2022-10-20T05:32:56;38.55;;;15.55;;
11191;SDS011;5652;48.406;10.820;2022-10-20T05:35:23;37.83;;;15.65;;
11191;SDS011;5652;48.406;10.820;2022-10-20T05:37:50;41.75;;;15.90;;
11191;SDS011;5652;48.406;10.820;2022-10-20T05:40:18;37.63;;;16.57;;
11191;SDS011;5652;48.406;10.820;2022-10-20T05:42:46;36.38;;;17.13;;
11191;SDS011;5652;48.406;10.820;2022-10-20T05:45:13;33.80;;;15.33;;
11191;SDS011;5652;48.406;10.820;2022-10-20T05:47:41;37.83;;;16.38;;
11191;SDS011;5652;48.406;10.820;2022-10-20T05:50:08;36.80;;;15.80;;
11191;SDS011;5652;48.406;10.820;2022-10-20T05:52:35;35.70;;;15.45;;
11191;SDS011;5652;48.406;10.820;2022-10-20T05:55:03;37.20;;;15.18;;
11191;SDS011;5652;48.406;10.820;2022-10-20T05:57:30;35.55;;;14.95;;
11191;SDS011;5652;48.406;10.820;2022-10-20T05:59:58;39.03;;;15.15;;
11191;SDS011;5652;48.406;10.820;2022-10-20T06:02:25;35.22;;;14.65;;
11191;SDS011;5652;48.406;10.820;2022-10-20T06:04:52;35.10;;;14.95;;
11191;SDS011;5652;48.406;10.820;2022-10-20T06:07:19;38.17;;;14.63;;
11191;SDS011;5652;48.406;10.820;2022-10-20T06:09:47;35.15;;;14.85;;
11191;SDS011;5652;48.406;10.820;2022-10-20T06:12:14;34.40;;;15.02;;
11191;SDS011;5652;48.406;10.820;2022-10-20T06:14:41;36.92;;;15.73;;
11191;SDS011;5652;48.406;10.820;2022-10-20T06:17:09;32.75;;;14.23;;
11191;SDS011;5652;48.406;10.820;2022-10-20T06:19:36;33.80;;;15.05;;
11191;SDS011;5652;48.406;10.820;2022-10-20T06:22:03;35.83;;;15.82;;
11191;SDS011;5652;48.406;10.820;2022-10-20T06:24:30;37.30;;;15.35;;
11191;SDS011;5652;48.406;10.820;2022-10-20T06:26:57;32.05;;;14.23;;
11191;SDS011;5652;48.406;10.820;2022-10-20T06:29:25;39.22;;;16.50;;
11191;SDS011;5652;48.406;10.820;2022-10-20T06:31:52;35.58;;;16.48;;
11191;SDS011;5652;48.406;10.820;2022-10-20T06:34:22;37.87;;;15.03;;
11191;SDS011;5652;48.406;10.820;2022-10-20T06:36:50;36.28;;;15.48;;
11191;SDS011;5652;48.406;10.820;2022-10-20T06:39:18;35.13;;;14.95;;
11191;SDS011;5652;48.406;10.820;2022-10-20T06:41:46;32.78;;;14.27;;
11191;SDS011;5652;48.406;10.820;2022-10-20T06:44:14;34.33;;;14.65;;
11191;SDS011;5652;48.406;10.820;2022-10-20T06:46:41;29.25;;;14.93;;
11191;SDS011;5652;48.406;10.820;2022-10-20T06:49:08;37.10;;;16.08;;
11191;SDS011;5652;48.406;10.820;2022-10-20T06:51:38;36.70;;;16.77;;
11191;SDS011;5652;48.406;10.820;2022-10-20T06:54:05;33.78;;;14.05;;
11191;SDS011;5652;48.406;10.820;2022-10-20T06:56:33;33.80;;;14.10;;
11191;SDS011;5652;48.406;10.820;2022-10-20T06:59:01;33.67;;;14.38;;
11191;SDS011;5652;48.406;10.820;2022-10-20T07:01:29;29.55;;;13.40;;
11191;SDS011;5652;48.406;10.820;2022-10-20T07:03:57;32.47;;;13.40;;
11191;SDS011;5652;48.406;10.820;2022-10-20T07:06:25;34.73;;;14.40;;
11191;SDS011;5652;48.406;10.820;2022-10-20T07:08:54;32.55;;;14.32;;
11191;SDS011;5652;48.406;10.820;2022-10-20T07:11:22;32.50;;;13.98;;
11191;SDS011;5652;48.406;10.820;2022-10-20T07:13:50;30.27;;;13.98;;
11191;SDS011;5652;48.406;10.820;2022-10-20T07:16:18;29.63;;;12.98;;
11191;SDS011;5652;48.406;10.820;2022-10-20T07:18:45;33.80;;;14.67;;
11191;SDS011;5652;48.406;10.820;2022-10-20T07:21:13;30.40;;;12.48;;
11191;SDS011;5652;48.406;10.820;2022-10-20T07:23:40;33.10;;;13.97;;
11191;SDS011;5652;48.406;10.820;2022-10-20T07:26:10;32.40;;;14.27;;
11191;SDS011;5652;48.406;10.820;2022-10-20T07:28:38;33.10;;;14.63;;
11191;SDS011;5652;48.406;10.820;2022-10-20T07:31:07;34.10;;;15.00;;
11191;SDS011;5652;48.406;10.820;2022-10-20T07:33:35;28.15;;;14.38;;
11191;SDS011;5652;48.406;10.820;2022-10-20T07:36:09;28.92;;;13.95;;
11191;SDS011;5652;48.406;10.820;2022-10-20T07:38:36;32.88;;;13.63;;
11191;SDS011;5652;48.406;10.820;2022-10-20T07:41:03;25.98;;;11.98;;
11191;SDS011;5652;48.406;10.820;2022-10-20T07:43:32;26.20;;;13.33;;
11191;SDS011;5652;48.406;10.820;2022-10-20T07:45:59;30.33;;;14.75;;
11191;SDS011;5652;48.406;10.820;2022-10-20T07:48:26;28.60;;;12.80;;
11191;SDS011;5652;48.406;10.820;2022-10-20T07:50:53;28.45;;;13.40;;
11191;SDS011;5652;48.406;10.820;2022-10-20T07:53:20;27.02;;;13.85;;
11191;SDS011;5652;48.406;10.820;2022-10-20T07:55:48;30.95;;;12.80;;
11191;SDS011;5652;48.406;10.820;2022-10-20T07:58:15;24.52;;;12.75;;
11191;SDS011;5652;48.406;10.820;2022-10-20T08:00:43;28.88;;;13.52;;
11191;SDS011;5652;48.406;10.820;2022-10-20T08:03:10;27.65;;;13.27;;
11191;SDS011;5652;48.406;10.820;2022-10-20T08:05:38;28.73;;;12.83;;
11191;SDS011;5652;48.406;10.820;2022-10-20T08:08:05;27.42;;;13.88;;
11191;SDS011;5652;48.406;10.820;2022-10-20T08:10:32;27.73;;;13.02;;
11191;SDS011;5652;48.406;10.820;2022-10-20T08:12:59;31.38;;;14.02;;
11191;SDS011;5652;48.406;10.820;2022-10-20T08:15:26;24.58;;;12.85;;
11191;SDS011;5652;48.406;10.820;2022-10-20T08:17:54;30.33;;;12.77;;
11191;SDS011;5652;48.406;10.820;2022-10-20T08:20:22;26.60;;;12.40;;
11191;SDS011;5652;48.406;10.820;2022-10-20T08:22:49;25.33;;;12.98;;
11191;SDS011;5652;48.406;10.820;2022-10-20T08:25:16;25.77;;;12.30;;
11191;SDS011;5652;48.406;10.820;2022-10-20T08:27:44;30.48;;;13.05;;
11191;SDS011;5652;48.406;10.820;2022-10-20T08:30:11;24.85;;;12.23;;
11191;SDS011;5652;48.406;10.820;2022-10-20T08:32:38;27.20;;;12.95;;
11191;SDS011;5652;48.406;10.820;2022-10-20T08:35:09;27.88;;;13.13;;
11191;SDS011;5652;48.406;10.820;2022-10-20T08:37:36;25.52;;;13.30;;
11191;SDS011;5652;48.406;10.820;2022-10-20T08:40:04;26.50;;;12.93;;
11191;SDS011;5652;48.406;10.820;2022-10-20T08:42:31;23.57;;;12.20;;
11191;SDS011;5652;48.406;10.820;2022-10-20T08:45:02;26.33;;;13.90;;
11191;SDS011;5652;48.406;10.820;2022-10-20T08:47:30;27.23;;;13.03;;
11191;SDS011;5652;48.406;10.820;2022-10-20T08:49:58;25.35;;;12.05;;
11191;SDS011;5652;48.406;10.820;2022-10-20T08:52:27;25.30;;;12.23;;
11191;SDS011;5652;48.406;10.820;2022-10-20T08:54:54;22.23;;;11.90;;
11191;SDS011;5652;48.406;10.820;2022-10-20T08:57:22;21.75;;;12.10;;
11191;SDS011;5652;48.406;10.820;2022-10-20T08:59:51;22.95;;;11.38;;
11191;SDS011;5652;48.406;10.820;2022-10-20T09:02:19;24.75;;;11.60;;
11191;SDS011;5652;48.406;10.820;2022-10-20T09:04:46;23.35;;;11.10;;
11191;SDS011;5652;48.406;10.820;2022-10-20T09:07:16;19.63;;;11.32;;
11191;SDS011;5652;48.406;10.820;2022-10-20T09:09:46;24.17;;;11.68;;
11191;SDS011;5652;48.406;10.820;2022-10-20T09:12:14;22.13;;;10.93;;
11191;SDS011;5652;48.406;10.820;2022-10-20T09:14:42;22.63;;;11.18;;
11191;SDS011;5652;48.406;10.820;2022-10-20T09:17:11;22.00;;;11.47;;
11191;SDS011;5652;48.406;10.820;2022-10-20T09:19:41;22.92;;;11.13;;
11191;SDS011;5652;48.406;10.820;2022-10-20T09:22:09;26.83;;;11.90;;
11191;SDS011;5652;48.406;10.820;2022-10-20T09:24:37;22.63;;;11.10;;
11191;SDS011;5652;48.406;10.820;2022-10-20T09:29:52;22.83;;;11.77;;
11191;SDS011;5652;48.406;10.820;2022-10-20T09:32:20;22.38;;;11.35;;
11191;SDS011;5652;48.406;10.820;2022-10-20T09:35:03;18.17;;;9.90;;
11191;SDS011;5652;48.406;10.820;2022-10-20T09:37:37;21.65;;;10.55;;
11191;SDS011;5652;48.406;10.820;2022-10-20T09:40:11;18.77;;;10.85;;
11191;SDS011;5652;48.406;10.820;2022-10-20T09:42:41;20.23;;;10.82;;
11191;SDS011;5652;48.406;10.820;2022-10-20T09:45:15;17.75;;;10.20;;
11191;SDS011;5652;48.406;10.820;2022-10-20T09:47:46;18.25;;;10.63;;
11191;SDS011;5652;48.406;10.820;2022-10-20T09:50:16;21.25;;;10.65;;
11191;SDS011;5652;48.406;10.820;2022-10-20T09:52:45;17.08;;;9.80;;
11191;SDS011;5652;48.406;10.820;2022-10-20T09:55:18;18.23;;;10.25;;
11191;SDS011;5652;48.406;10.820;2022-10-20T09:57:46;19.17;;;10.40;;
11191;SDS011;5652;48.406;10.820;2022-10-20T10:00:22;16.85;;;9.48;;
11191;SDS011;5652;48.406;10.820;2022-10-20T10:02:56;20.77;;;10.63;;
11191;SDS011;5652;48.406;10.820;2022-10-20T10:05:33;17.63;;;10.05;;
11191;SDS011;5652;48.406;10.820;2022-10-20T10:08:00;18.70;;;9.77;;
11191;SDS011;5652;48.406;10.820;2022-10-20T10:10:28;17.93;;;10.20;;
11191;SDS011;5652;48.406;10.820;2022-10-20T10:12:56;18.52;;;10.55;;
11191;SDS011;5652;48.406;10.820;2022-10-20T10:15:30;18.97;;;9.93;;
11191;SDS011;5652;48.406;10.820;2022-10-20T10:17:58;19.20;;;10.25;;
11191;SDS011;5652;48.406;10.820;2022-10-20T10:20:33;18.58;;;10.35;;
11191;SDS011;5652;48.406;10.820;2022-10-20T10:23:14;14.60;;;9.23;;
11191;SDS011;5652;48.406;10.820;2022-10-20T10:25:43;18.30;;;9.80;;
11191;SDS011;5652;48.406;10.820;2022-10-20T10:28:19;18.10;;;9.90;;
11191;SDS011;5652;48.406;10.820;2022-10-20T10:30:47;18.42;;;10.02;;
11191;SDS011;5652;48.406;10.820;2022-10-20T10:33:22;16.73;;;9.88;;
11191;SDS011;5652;48.406;10.820;2022-10-20T10:35:51;16.35;;;9.63;;
11191;SDS011;5652;48.406;10.820;2022-10-20T10:38:18;19.17;;;10.17;;
11191;SDS011;5652;48.406;10.820;2022-10-20T10:40:47;17.77;;;10.00;;
11191;SDS011;5652;48.406;10.820;2022-10-20T10:43:24;16.30;;;10.15;;
11191;SDS011;5652;48.406;10.820;2022-10-20T10:45:59;18.13;;;10.48;;
11191;SDS011;5652;48.406;10.820;2022-10-20T10:48:35;18.73;;;10.10;;
11191;SDS011;5652;48.406;10.820;2022-10-20T10:51:10;17.95;;;10.48;;
11191;SDS011;5652;48.406;10.820;2022-10-20T10:53:44;17.80;;;9.87;;
11191;SDS011;5652;48.406;10.820;2022-10-20T10:56:22;15.50;;;9.60;;
11191;SDS011;5652;48.406;10.820;2022-10-20T10:58:55;17.90;;;9.82;;
11191;SDS011;5652;48.406;10.820;2022-10-20T11:01:32;18.13;;;9.97;;
11191;SDS011;5652;48.406;10.820;2022-10-20T11:04:06;16.07;;;10.10;;
11191;SDS011;5652;48.406;10.820;2022-10-20T11:06:36;16.75;;;10.00;;
11191;SDS011;5652;48.406;10.820;2022-10-20T11:09:11;16.75;;;10.20;;
11191;SDS011;5652;48.406;10.820;2022-10-20T11:11:47;19.13;;;10.50;;
11191;SDS011;5652;48.406;10.820;2022-10-20T11:14:22;18.92;;;10.20;;
11191;SDS011;5652;48.406;10.820;2022-10-20T11:16:57;15.90;;;10.15;;
11191;SDS011;5652;48.406;10.820;2022-10-20T11:22:14;14.35;;;9.65;;
11191;SDS011;5652;48.406;10.820;2022-10-20T11:24:44;17.55;;;9.65;;
11191;SDS011;5652;48.406;10.820;2022-10-20T11:27:14;15.20;;;9.20;;
11191;SDS011;5652;48.406;10.820;2022-10-20T11:29:43;16.33;;;9.60;;
11191;SDS011;5652;48.406;10.820;2022-10-20T11:32:17;15.32;;;9.73;;
11191;SDS011;5652;48.406;10.820;2022-10-20T11:34:49;16.45;;;9.15;;
11191;SDS011;5652;48.406;10.820;2022-10-20T11:37:19;16.45;;;9.45;;
11191;SDS011;5652;48.406;10.820;2022-10-20T11:39:48;15.30;;;9.05;;
11191;SDS011;5652;48.406;10.820;2022-10-20T11:42:21;14.10;;;8.33;;
11191;SDS011;5652;48.406;10.820;2022-10-20T11:44:49;15.27;;;8.52;;
11191;SDS011;5652;48.406;10.820;2022-10-20T11:47:20;16.17;;;8.98;;
11191;SDS011;5652;48.406;10.820;2022-10-20T11:49:51;15.15;;;8.93;;
11191;SDS011;5652;48.406;10.820;2022-10-20T11:55:21;14.68;;;9.00;;
11191;SDS011;5652;48.406;10.820;2022-10-20T12:00:49;12.75;;;8.98;;
11191;SDS011;5652;48.406;10.820;2022-10-20T12:03:32;14.88;;;9.70;;
11191;SDS011;5652;48.406;10.820;2022-10-20T12:11:33;15.23;;;9.40;;
11191;SDS011;5652;48.406;10.820;2022-10-20T12:14:02;15.98;;;9.65;;
11191;SDS011;5652;48.406;10.820;2022-10-20T12:19:20;14.20;;;9.30;;
11191;SDS011;5652;48.406;10.820;2022-10-20T12:21:57;12.43;;;8.50;;
11191;SDS011;5652;48.406;10.820;2022-10-20T12:24:28;14.87;;;8.97;;
11191;SDS011;5652;48.406;10.820;2022-10-20T12:29:46;12.35;;;8.65;;
11191;SDS011;5652;48.406;10.820;2022-10-20T12:32:33;12.27;;;8.67;;
11191;SDS011;5652;48.406;10.820;2022-10-20T12:35:06;12.30;;;8.35;;
11191;SDS011;5652;48.406;10.820;2022-10-20T12:37:53;13.05;;;8.38;;
11191;SDS011;5652;48.406;10.820;2022-10-20T12:40:23;12.27;;;8.32;;
11191;SDS011;5652;48.406;10.820;2022-10-20T12:42:51;14.52;;;8.40;;
11191;SDS011;5652;48.406;10.820;2022-10-20T12:45:22;12.48;;;8.38;;
11191;SDS011;5652;48.406;10.820;2022-10-20T12:47:52;15.52;;;9.07;;
11191;SDS011;5652;48.406;10.820;2022-10-20T12:50:32;14.13;;;8.80;;
11191;SDS011;5652;48.406;10.820;2022-10-20T12:53:08;13.68;;;8.90;;
11191;SDS011;5652;48.406;10.820;2022-10-20T12:55:36;13.35;;;8.68;;
11191;SDS011;5652;48.406;10.820;2022-10-20T12:58:11;14.77;;;8.95;;
11191;SDS011;5652;48.406;10.820;2022-10-20T13:00:59;13.55;;;8.52;;
11191;SDS011;5652;48.406;10.820;2022-10-20T13:03:34;13.57;;;8.52;;
11191;SDS011;5652;48.406;10.820;2022-10-20T13:06:17;14.02;;;8.52;;
11191;SDS011;5652;48.406;10.820;2022-10-20T13:11:41;16.40;;;9.43;;
11191;SDS011;5652;48.406;10.820;2022-10-20T13:16:59;14.52;;;8.45;;
11191;SDS011;5652;48.406;10.820;2022-10-20T13:19:31;16.48;;;9.65;;
11191;SDS011;5652;48.406;10.820;2022-10-20T13:24:45;14.43;;;9.32;;
11191;SDS011;5652;48.406;10.820;2022-10-20T13:27:13;15.05;;;8.93;;
11191;SDS011;5652;48.406;10.820;2022-10-20T13:29:41;16.52;;;9.25;;
11191;SDS011;5652;48.406;10.820;2022-10-20T13:32:11;15.38;;;9.02;;
11191;SDS011;5652;48.406;10.820;2022-10-20T13:34:44;14.52;;;8.90;;
11191;SDS011;5652;48.406;10.820;2022-10-20T13:37:20;14.23;;;8.65;;
11191;SDS011;5652;48.406;10.820;2022-10-20T13:39:53;16.30;;;9.83;;
11191;SDS011;5652;48.406;10.820;2022-10-20T13:42:26;15.38;;;9.70;;
11191;SDS011;5652;48.406;10.820;2022-10-20T13:44:59;15.85;;;9.25;;
11191;SDS011;5652;48.406;10.820;2022-10-20T13:47:40;15.05;;;9.45;;
11191;SDS011;5652;48.406;10.820;2022-10-20T13:50:11;13.95;;;9.20;;
11191;SDS011;5652;48.406;10.820;2022-10-20T13:52:40;13.48;;;8.65;;
11191;SDS011;5652;48.406;10.820;2022-10-20T13:55:11;14.18;;;8.93;;
11191;SDS011;5652;48.406;10.820;2022-10-20T13:57:45;16.40;;;9.48;;
11191;SDS011;5652;48.406;10.820;2022-10-20T14:00:16;15.27;;;9.68;;
11191;SDS011;5652;48.406;10.820;2022-10-20T14:02:50;14.43;;;9.23;;
11191;SDS011;5652;48.406;10.820;2022-10-20T14:05:19;14.73;;;9.18;;
11191;SDS011;5652;48.406;10.820;2022-10-20T14:07:46;14.57;;;8.93;;
11191;SDS011;5652;48.406;10.820;2022-10-20T14:10:26;17.70;;;9.67;;
11191;SDS011;5652;48.406;10.820;2022-10-20T14:12:54;13.55;;;8.77;;
11191;SDS011;5652;48.406;10.820;2022-10-20T14:15:27;13.37;;;9.13;;
11191;SDS011;5652;48.406;10.820;2022-10-20T14:17:58;16.07;;;9.63;;
11191;SDS011;5652;48.406;10.820;2022-10-20T14:20:26;13.20;;;9.10;;
11191;SDS011;5652;48.406;10.820;2022-10-20T14:22:54;14.23;;;8.85;;
11191;SDS011;5652;48.406;10.820;2022-10-20T14:25:23;14.30;;;8.75;;
11191;SDS011;5652;48.406;10.820;2022-10-20T14:27:52;13.60;;;9.07;;
11191;SDS011;5652;48.406;10.820;2022-10-20T14:30:20;16.30;;;9.57;;
11191;SDS011;5652;48.406;10.820;2022-10-20T14:32:48;15.40;;;8.75;;
11191;SDS011;5652;48.406;10.820;2022-10-20T14:35:17;14.27;;;9.20;;
11191;SDS011;5652;48.406;10.820;2022-10-20T14:37:50;14.05;;;8.98;;
11191;SDS011;5652;48.406;10.820;2022-10-20T14:40:19;15.90;;;9.55;;
11191;SDS011;5652;48.406;10.820;2022-10-20T14:42:47;16.63;;;9.50;;
11191;SDS011;5652;48.406;10.820;2022-10-20T14:45:20;17.52;;;9.77;;
11191;SDS011;5652;48.406;10.820;2022-10-20T14:47:48;14.98;;;9.18;;
11191;SDS011;5652;48.406;10.820;2022-10-20T14:50:19;17.45;;;9.82;;
11191;SDS011;5652;48.406;10.820;2022-10-20T14:52:46;15.98;;;9.57;;
11191;SDS011;5652;48.406;10.820;2022-10-20T14:55:26;16.05;;;9.43;;
11191;SDS011;5652;48.406;10.820;2022-10-20T14:57:53;15.70;;;8.70;;
11191;SDS011;5652;48.406;10.820;2022-10-20T15:00:27;17.98;;;9.70;;
11191;SDS011;5652;48.406;10.820;2022-10-20T15:02:54;16.58;;;9.55;;
11191;SDS011;5652;48.406;10.820;2022-10-20T15:05:29;20.02;;;9.27;;
11191;SDS011;5652;48.406;10.820;2022-10-20T15:07:57;15.20;;;8.85;;
11191;SDS011;5652;48.406;10.820;2022-10-20T15:10:25;13.75;;;9.35;;
11191;SDS011;5652;48.406;10.820;2022-10-20T15:12:53;15.10;;;9.38;;
11191;SDS011;5652;48.406;10.820;2022-10-20T15:15:21;14.50;;;8.93;;